sensor_id;sensor_type;location;lat;lon;timestamp;P1;durP1;ratioP1;P2;durP2;ratioP2
16577;SDS011;8401;52.528;13.340;2023-04-25T00:02:09;4.17;;;2.63;;
16577;SDS011;8401;52.528;13.340;2023-04-25T00:04:35;4.33;;;2.37;;
16577;SDS011;8401;52.528;13.340;2023-04-25T00:07:02;4.40;;;2.50;;
16577;SDS011;8401;52.528;13.340;2023-04-25T00:09:29;3.00;;;2.03;;
16577;SDS011;8401;52.528;13.340;2023-04-25T00:11:55;2.43;;;1.90;;
16577;SDS011;8401;52.528;13.340;2023-04-25T00:14:21;4.90;;;2.20;;
16577;SDS011;8401;52.528;13.340;2023-04-25T00:16:47;4.07;;;2.57;;
16577;SDS011;8401;52.528;13.340;2023-04-25T00:19:13;2.47;;;1.90;;
16577;SDS011;8401;52.528;13.340;2023-04-25T00:21:39;6.17;;;2.17;;
16577;SDS011;8401;52.528;13.340;2023-04-25T00:24:07;3.70;;;2.23;;
16577;SDS011;8401;52.528;13.340;2023-04-25T00:26:34;3.20;;;2.10;;
16577;SDS011;8401;52.528;13.340;2023-04-25T00:29:00;3.50;;;2.10;;
16577;SDS011;8401;52.528;13.340;2023-04-25T00:31:26;3.93;;;2.53;;
16577;SDS011;8401;52.528;13.340;2023-04-25T00:33:53;4.77;;;2.50;;
16577;SDS011;8401;52.528;13.340;2023-04-25T00:36:19;6.83;;;2.27;;
16577;SDS011;8401;52.528;13.340;2023-04-25T00:38:45;6.00;;;2.47;;
16577;SDS011;8401;52.528;13.340;2023-04-25T00:41:11;3.87;;;2.40;;
16577;SDS011;8401;52.528;13.340;2023-04-25T00:43:37;3.20;;;2.23;;
16577;SDS011;8401;52.528;13.340;2023-04-25T00:46:03;3.93;;;2.40;;
16577;SDS011;8401;52.528;13.340;2023-04-25T00:48:29;2.20;;;1.90;;
16577;SDS011;8401;52.528;13.340;2023-04-25T00:50:56;2.33;;;1.80;;
16577;SDS011;8401;52.528;13.340;2023-04-25T00:53:24;3.27;;;2.00;;
16577;SDS011;8401;52.528;13.340;2023-04-25T00:55:51;2.50;;;1.93;;
16577;SDS011;8401;52.528;13.340;2023-04-25T00:58:18;4.57;;;2.10;;
16577;SDS011;8401;52.528;13.340;2023-04-25T01:00:47;5.67;;;2.47;;
16577;SDS011;8401;52.528;13.340;2023-04-25T01:03:15;4.27;;;2.30;;
16577;SDS011;8401;52.528;13.340;2023-04-25T01:05:42;3.43;;;2.27;;
16577;SDS011;8401;52.528;13.340;2023-04-25T01:08:08;3.67;;;2.47;;
16577;SDS011;8401;52.528;13.340;2023-04-25T01:10:35;5.50;;;2.87;;
16577;SDS011;8401;52.528;13.340;2023-04-25T01:13:01;4.03;;;2.60;;
16577;SDS011;8401;52.528;13.340;2023-04-25T01:15:26;4.80;;;3.03;;
16577;SDS011;8401;52.528;13.340;2023-04-25T01:17:52;3.83;;;2.57;;
16577;SDS011;8401;52.528;13.340;2023-04-25T01:20:23;7.43;;;2.60;;
16577;SDS011;8401;52.528;13.340;2023-04-25T01:22:50;6.00;;;2.43;;
16577;SDS011;8401;52.528;13.340;2023-04-25T01:25:17;4.67;;;2.50;;
16577;SDS011;8401;52.528;13.340;2023-04-25T01:27:44;4.83;;;2.50;;
16577;SDS011;8401;52.528;13.340;2023-04-25T01:30:10;6.00;;;2.57;;
16577;SDS011;8401;52.528;13.340;2023-04-25T01:32:36;6.60;;;2.60;;
16577;SDS011;8401;52.528;13.340;2023-04-25T01:35:05;6.43;;;2.73;;
16577;SDS011;8401;52.528;13.340;2023-04-25T01:37:37;4.40;;;2.70;;
16577;SDS011;8401;52.528;13.340;2023-04-25T01:40:04;8.23;;;3.13;;
16577;SDS011;8401;52.528;13.340;2023-04-25T01:42:31;3.73;;;2.43;;
16577;SDS011;8401;52.528;13.340;2023-04-25T01:44:58;4.23;;;2.97;;
16577;SDS011;8401;52.528;13.340;2023-04-25T01:47:24;5.07;;;2.70;;
16577;SDS011;8401;52.528;13.340;2023-04-25T01:49:49;5.40;;;3.13;;
16577;SDS011;8401;52.528;13.340;2023-04-25T01:52:15;5.70;;;3.23;;
16577;SDS011;8401;52.528;13.340;2023-04-25T01:54:41;6.77;;;3.07;;
16577;SDS011;8401;52.528;13.340;2023-04-25T01:57:09;4.67;;;2.73;;
16577;SDS011;8401;52.528;13.340;2023-04-25T01:59:36;5.80;;;2.70;;
16577;SDS011;8401;52.528;13.340;2023-04-25T02:02:02;7.97;;;3.30;;
16577;SDS011;8401;52.528;13.340;2023-04-25T02:04:30;7.23;;;3.53;;
16577;SDS011;8401;52.528;13.340;2023-04-25T02:06:56;4.87;;;2.70;;
16577;SDS011;8401;52.528;13.340;2023-04-25T02:09:22;6.80;;;3.90;;
16577;SDS011;8401;52.528;13.340;2023-04-25T02:11:48;3.57;;;2.67;;
16577;SDS011;8401;52.528;13.340;2023-04-25T02:14:14;4.20;;;2.90;;
16577;SDS011;8401;52.528;13.340;2023-04-25T02:16:39;6.43;;;3.20;;
16577;SDS011;8401;52.528;13.340;2023-04-25T02:19:05;7.77;;;2.80;;
16577;SDS011;8401;52.528;13.340;2023-04-25T02:21:31;6.93;;;3.10;;
16577;SDS011;8401;52.528;13.340;2023-04-25T02:23:57;6.33;;;2.97;;
16577;SDS011;8401;52.528;13.340;2023-04-25T02:26:23;7.00;;;3.17;;
16577;SDS011;8401;52.528;13.340;2023-04-25T02:28:49;6.13;;;3.40;;
16577;SDS011;8401;52.528;13.340;2023-04-25T02:31:15;5.13;;;3.20;;
16577;SDS011;8401;52.528;13.340;2023-04-25T02:33:41;6.23;;;3.07;;
16577;SDS011;8401;52.528;13.340;2023-04-25T02:36:07;6.30;;;2.90;;
16577;SDS011;8401;52.528;13.340;2023-04-25T02:38:33;5.53;;;3.73;;
16577;SDS011;8401;52.528;13.340;2023-04-25T02:40:59;6.50;;;3.50;;
16577;SDS011;8401;52.528;13.340;2023-04-25T02:43:24;5.33;;;3.27;;
16577;SDS011;8401;52.528;13.340;2023-04-25T02:45:50;7.20;;;2.90;;
16577;SDS011;8401;52.528;13.340;2023-04-25T02:48:16;6.57;;;3.23;;
16577;SDS011;8401;52.528;13.340;2023-04-25T02:50:42;4.87;;;3.13;;
16577;SDS011;8401;52.528;13.340;2023-04-25T02:53:07;6.83;;;3.50;;
16577;SDS011;8401;52.528;13.340;2023-04-25T02:55:33;6.33;;;3.27;;
16577;SDS011;8401;52.528;13.340;2023-04-25T02:57:58;5.30;;;3.03;;
16577;SDS011;8401;52.528;13.340;2023-04-25T03:00:24;7.70;;;3.60;;
16577;SDS011;8401;52.528;13.340;2023-04-25T03:02:50;5.60;;;3.40;;
16577;SDS011;8401;52.528;13.340;2023-04-25T03:05:16;6.07;;;3.23;;
16577;SDS011;8401;52.528;13.340;2023-04-25T03:07:42;7.03;;;3.83;;
16577;SDS011;8401;52.528;13.340;2023-04-25T03:10:09;5.37;;;3.47;;
16577;SDS011;8401;52.528;13.340;2023-04-25T03:12:35;5.63;;;3.43;;
16577;SDS011;8401;52.528;13.340;2023-04-25T03:15:01;6.53;;;3.53;;
16577;SDS011;8401;52.528;13.340;2023-04-25T03:17:27;4.60;;;3.30;;
16577;SDS011;8401;52.528;13.340;2023-04-25T03:19:53;8.10;;;3.70;;
16577;SDS011;8401;52.528;13.340;2023-04-25T03:22:19;7.13;;;3.50;;
16577;SDS011;8401;52.528;13.340;2023-04-25T03:24:45;6.43;;;3.33;;
16577;SDS011;8401;52.528;13.340;2023-04-25T03:27:10;5.80;;;3.00;;
16577;SDS011;8401;52.528;13.340;2023-04-25T03:29:36;6.53;;;3.70;;
16577;SDS011;8401;52.528;13.340;2023-04-25T03:32:02;9.27;;;3.70;;
16577;SDS011;8401;52.528;13.340;2023-04-25T03:34:27;6.77;;;3.77;;
16577;SDS011;8401;52.528;13.340;2023-04-25T03:36:53;5.43;;;3.53;;
16577;SDS011;8401;52.528;13.340;2023-04-25T03:39:19;9.60;;;3.40;;
16577;SDS011;8401;52.528;13.340;2023-04-25T03:41:44;8.97;;;3.80;;
16577;SDS011;8401;52.528;13.340;2023-04-25T03:44:10;7.43;;;4.03;;
16577;SDS011;8401;52.528;13.340;2023-04-25T03:46:36;8.63;;;3.97;;
16577;SDS011;8401;52.528;13.340;2023-04-25T03:49:01;6.47;;;3.77;;
16577;SDS011;8401;52.528;13.340;2023-04-25T03:51:27;6.33;;;3.40;;
16577;SDS011;8401;52.528;13.340;2023-04-25T03:53:52;6.97;;;3.87;;
16577;SDS011;8401;52.528;13.340;2023-04-25T03:56:18;8.17;;;3.73;;
16577;SDS011;8401;52.528;13.340;2023-04-25T03:58:45;8.37;;;3.70;;
16577;SDS011;8401;52.528;13.340;2023-04-25T04:01:10;6.57;;;3.73;;
16577;SDS011;8401;52.528;13.340;2023-04-25T04:03:36;8.83;;;3.63;;
16577;SDS011;8401;52.528;13.340;2023-04-25T04:06:03;5.57;;;3.77;;
16577;SDS011;8401;52.528;13.340;2023-04-25T04:08:30;6.10;;;3.80;;
16577;SDS011;8401;52.528;13.340;2023-04-25T04:10:59;5.97;;;3.40;;
16577;SDS011;8401;52.528;13.340;2023-04-25T04:13:28;6.73;;;3.97;;
16577;SDS011;8401;52.528;13.340;2023-04-25T04:15:53;8.63;;;3.70;;
16577;SDS011;8401;52.528;13.340;2023-04-25T04:18:20;7.07;;;3.70;;
16577;SDS011;8401;52.528;13.340;2023-04-25T04:20:46;6.20;;;4.07;;
16577;SDS011;8401;52.528;13.340;2023-04-25T04:23:12;8.67;;;3.90;;
16577;SDS011;8401;52.528;13.340;2023-04-25T04:25:37;8.37;;;3.67;;
16577;SDS011;8401;52.528;13.340;2023-04-25T04:28:04;7.70;;;3.67;;
16577;SDS011;8401;52.528;13.340;2023-04-25T04:30:31;10.67;;;3.73;;
16577;SDS011;8401;52.528;13.340;2023-04-25T04:32:58;7.47;;;4.47;;
16577;SDS011;8401;52.528;13.340;2023-04-25T04:35:25;6.07;;;3.33;;
16577;SDS011;8401;52.528;13.340;2023-04-25T04:37:51;11.57;;;4.30;;
16577;SDS011;8401;52.528;13.340;2023-04-25T04:40:17;7.00;;;3.60;;
16577;SDS011;8401;52.528;13.340;2023-04-25T04:42:43;6.70;;;3.50;;
16577;SDS011;8401;52.528;13.340;2023-04-25T04:45:13;8.27;;;3.50;;
16577;SDS011;8401;52.528;13.340;2023-04-25T04:47:39;7.43;;;3.97;;
16577;SDS011;8401;52.528;13.340;2023-04-25T04:50:08;7.40;;;3.50;;
16577;SDS011;8401;52.528;13.340;2023-04-25T04:52:35;7.50;;;4.17;;
16577;SDS011;8401;52.528;13.340;2023-04-25T04:55:02;6.87;;;4.03;;
16577;SDS011;8401;52.528;13.340;2023-04-25T04:57:29;8.97;;;4.20;;
16577;SDS011;8401;52.528;13.340;2023-04-25T04:59:56;6.73;;;3.60;;
16577;SDS011;8401;52.528;13.340;2023-04-25T05:02:22;8.10;;;4.30;;
16577;SDS011;8401;52.528;13.340;2023-04-25T05:04:47;8.77;;;4.23;;
16577;SDS011;8401;52.528;13.340;2023-04-25T05:07:13;8.23;;;3.97;;
16577;SDS011;8401;52.528;13.340;2023-04-25T05:09:38;7.60;;;3.90;;
16577;SDS011;8401;52.528;13.340;2023-04-25T05:12:04;6.07;;;3.63;;
16577;SDS011;8401;52.528;13.340;2023-04-25T05:14:30;6.23;;;3.40;;
16577;SDS011;8401;52.528;13.340;2023-04-25T05:16:56;7.90;;;4.17;;
16577;SDS011;8401;52.528;13.340;2023-04-25T05:19:21;6.13;;;3.90;;
16577;SDS011;8401;52.528;13.340;2023-04-25T05:21:48;10.53;;;4.57;;
16577;SDS011;8401;52.528;13.340;2023-04-25T05:24:14;5.50;;;3.37;;
16577;SDS011;8401;52.528;13.340;2023-04-25T05:26:40;5.73;;;3.90;;
16577;SDS011;8401;52.528;13.340;2023-04-25T05:29:05;7.43;;;4.10;;
16577;SDS011;8401;52.528;13.340;2023-04-25T05:31:31;8.37;;;3.70;;
16577;SDS011;8401;52.528;13.340;2023-04-25T05:33:57;4.90;;;3.30;;
16577;SDS011;8401;52.528;13.340;2023-04-25T05:36:23;5.90;;;3.70;;
16577;SDS011;8401;52.528;13.340;2023-04-25T05:38:48;6.43;;;3.37;;
16577;SDS011;8401;52.528;13.340;2023-04-25T05:41:14;5.83;;;3.60;;
16577;SDS011;8401;52.528;13.340;2023-04-25T05:43:40;6.47;;;3.97;;
16577;SDS011;8401;52.528;13.340;2023-04-25T05:46:10;8.07;;;5.07;;
16577;SDS011;8401;52.528;13.340;2023-04-25T05:48:36;7.93;;;4.50;;
16577;SDS011;8401;52.528;13.340;2023-04-25T05:51:02;10.17;;;4.10;;
16577;SDS011;8401;52.528;13.340;2023-04-25T05:53:28;7.93;;;4.30;;
16577;SDS011;8401;52.528;13.340;2023-04-25T05:55:53;8.10;;;4.57;;
16577;SDS011;8401;52.528;13.340;2023-04-25T05:58:19;7.20;;;4.30;;
16577;SDS011;8401;52.528;13.340;2023-04-25T06:00:45;9.03;;;4.37;;
16577;SDS011;8401;52.528;13.340;2023-04-25T06:03:11;9.57;;;4.57;;
16577;SDS011;8401;52.528;13.340;2023-04-25T06:05:39;8.80;;;4.67;;
16577;SDS011;8401;52.528;13.340;2023-04-25T06:08:06;9.97;;;4.40;;
16577;SDS011;8401;52.528;13.340;2023-04-25T06:10:31;6.83;;;4.90;;
16577;SDS011;8401;52.528;13.340;2023-04-25T06:12:57;9.07;;;4.40;;
16577;SDS011;8401;52.528;13.340;2023-04-25T06:15:23;7.13;;;4.40;;
16577;SDS011;8401;52.528;13.340;2023-04-25T06:17:48;9.33;;;4.37;;
16577;SDS011;8401;52.528;13.340;2023-04-25T06:20:14;8.43;;;4.80;;
16577;SDS011;8401;52.528;13.340;2023-04-25T06:22:40;9.03;;;5.23;;
16577;SDS011;8401;52.528;13.340;2023-04-25T06:25:05;8.23;;;4.90;;
16577;SDS011;8401;52.528;13.340;2023-04-25T06:27:32;9.07;;;4.40;;
16577;SDS011;8401;52.528;13.340;2023-04-25T06:30:00;9.57;;;5.20;;
16577;SDS011;8401;52.528;13.340;2023-04-25T06:32:26;7.40;;;4.33;;
16577;SDS011;8401;52.528;13.340;2023-04-25T06:34:53;9.67;;;4.70;;
16577;SDS011;8401;52.528;13.340;2023-04-25T06:37:19;10.10;;;4.77;;
16577;SDS011;8401;52.528;13.340;2023-04-25T06:39:45;11.90;;;4.83;;
16577;SDS011;8401;52.528;13.340;2023-04-25T06:42:10;9.27;;;5.00;;
16577;SDS011;8401;52.528;13.340;2023-04-25T06:44:36;7.43;;;5.23;;
16577;SDS011;8401;52.528;13.340;2023-04-25T06:47:02;7.67;;;5.17;;
16577;SDS011;8401;52.528;13.340;2023-04-25T06:49:27;9.20;;;4.60;;
16577;SDS011;8401;52.528;13.340;2023-04-25T06:51:53;9.60;;;4.93;;
16577;SDS011;8401;52.528;13.340;2023-04-25T06:54:19;8.13;;;4.80;;
16577;SDS011;8401;52.528;13.340;2023-04-25T06:56:45;9.63;;;4.70;;
16577;SDS011;8401;52.528;13.340;2023-04-25T06:59:11;8.57;;;4.63;;
16577;SDS011;8401;52.528;13.340;2023-04-25T07:01:36;12.67;;;4.00;;
16577;SDS011;8401;52.528;13.340;2023-04-25T07:04:02;6.07;;;4.23;;
16577;SDS011;8401;52.528;13.340;2023-04-25T07:06:28;8.87;;;4.47;;
16577;SDS011;8401;52.528;13.340;2023-04-25T07:08:54;7.40;;;4.47;;
16577;SDS011;8401;52.528;13.340;2023-04-25T07:11:20;7.37;;;3.70;;
16577;SDS011;8401;52.528;13.340;2023-04-25T07:13:46;9.63;;;4.60;;
16577;SDS011;8401;52.528;13.340;2023-04-25T07:16:11;8.27;;;4.33;;
16577;SDS011;8401;52.528;13.340;2023-04-25T07:18:37;7.27;;;4.53;;
16577;SDS011;8401;52.528;13.340;2023-04-25T07:21:03;5.87;;;3.90;;
16577;SDS011;8401;52.528;13.340;2023-04-25T07:23:29;9.47;;;4.40;;
16577;SDS011;8401;52.528;13.340;2023-04-25T07:25:55;8.40;;;4.03;;
16577;SDS011;8401;52.528;13.340;2023-04-25T07:28:21;9.53;;;4.20;;
16577;SDS011;8401;52.528;13.340;2023-04-25T07:30:46;10.67;;;4.90;;
16577;SDS011;8401;52.528;13.340;2023-04-25T07:33:12;10.57;;;4.20;;
16577;SDS011;8401;52.528;13.340;2023-04-25T07:35:38;8.93;;;4.00;;
16577;SDS011;8401;52.528;13.340;2023-04-25T07:38:03;8.63;;;3.90;;
16577;SDS011;8401;52.528;13.340;2023-04-25T07:40:31;9.23;;;4.03;;
16577;SDS011;8401;52.528;13.340;2023-04-25T07:42:57;11.00;;;4.50;;
16577;SDS011;8401;52.528;13.340;2023-04-25T07:45:23;9.97;;;3.83;;
16577;SDS011;8401;52.528;13.340;2023-04-25T07:47:49;10.07;;;3.03;;
16577;SDS011;8401;52.528;13.340;2023-04-25T07:50:15;11.80;;;4.20;;
16577;SDS011;8401;52.528;13.340;2023-04-25T07:52:40;8.33;;;3.87;;
16577;SDS011;8401;52.528;13.340;2023-04-25T07:55:06;13.03;;;3.83;;
16577;SDS011;8401;52.528;13.340;2023-04-25T07:57:32;11.63;;;3.70;;
16577;SDS011;8401;52.528;13.340;2023-04-25T07:59:57;14.57;;;4.43;;
16577;SDS011;8401;52.528;13.340;2023-04-25T08:02:23;14.90;;;3.80;;
16577;SDS011;8401;52.528;13.340;2023-04-25T08:04:51;11.63;;;3.60;;
16577;SDS011;8401;52.528;13.340;2023-04-25T08:07:16;9.57;;;3.93;;
16577;SDS011;8401;52.528;13.340;2023-04-25T08:09:42;13.03;;;3.87;;
16577;SDS011;8401;52.528;13.340;2023-04-25T08:12:07;14.23;;;3.90;;
16577;SDS011;8401;52.528;13.340;2023-04-25T08:14:33;9.30;;;3.30;;
16577;SDS011;8401;52.528;13.340;2023-04-25T08:17:02;17.03;;;4.23;;
16577;SDS011;8401;52.528;13.340;2023-04-25T08:19:31;11.37;;;4.03;;
16577;SDS011;8401;52.528;13.340;2023-04-25T08:21:56;9.50;;;4.13;;
16577;SDS011;8401;52.528;13.340;2023-04-25T08:24:22;9.83;;;3.40;;
16577;SDS011;8401;52.528;13.340;2023-04-25T08:26:48;13.67;;;3.50;;
16577;SDS011;8401;52.528;13.340;2023-04-25T08:29:14;18.53;;;4.33;;
16577;SDS011;8401;52.528;13.340;2023-04-25T08:31:40;13.77;;;3.53;;
16577;SDS011;8401;52.528;13.340;2023-04-25T08:34:06;13.57;;;3.70;;
16577;SDS011;8401;52.528;13.340;2023-04-25T08:36:31;11.00;;;3.43;;
16577;SDS011;8401;52.528;13.340;2023-04-25T08:38:57;15.00;;;4.43;;
16577;SDS011;8401;52.528;13.340;2023-04-25T08:41:23;11.93;;;3.60;;
16577;SDS011;8401;52.528;13.340;2023-04-25T08:43:50;14.30;;;3.87;;
16577;SDS011;8401;52.528;13.340;2023-04-25T08:46:19;8.63;;;3.43;;
16577;SDS011;8401;52.528;13.340;2023-04-25T08:48:45;11.03;;;2.97;;
16577;SDS011;8401;52.528;13.340;2023-04-25T08:51:23;11.30;;;3.37;;
16577;SDS011;8401;52.528;13.340;2023-04-25T08:53:51;10.57;;;3.10;;
16577;SDS011;8401;52.528;13.340;2023-04-25T08:56:18;10.23;;;2.97;;
16577;SDS011;8401;52.528;13.340;2023-04-25T08:58:47;7.70;;;3.30;;
16577;SDS011;8401;52.528;13.340;2023-04-25T09:01:14;11.00;;;3.30;;
16577;SDS011;8401;52.528;13.340;2023-04-25T09:03:39;6.30;;;2.73;;
16577;SDS011;8401;52.528;13.340;2023-04-25T09:06:06;6.10;;;2.40;;
16577;SDS011;8401;52.528;13.340;2023-04-25T09:08:32;12.00;;;2.97;;
16577;SDS011;8401;52.528;13.340;2023-04-25T09:10:57;11.03;;;3.10;;
16577;SDS011;8401;52.528;13.340;2023-04-25T09:13:26;6.23;;;3.00;;
16577;SDS011;8401;52.528;13.340;2023-04-25T09:15:56;7.97;;;2.67;;
16577;SDS011;8401;52.528;13.340;2023-04-25T09:18:29;7.97;;;3.10;;
16577;SDS011;8401;52.528;13.340;2023-04-25T09:20:58;7.20;;;2.40;;
16577;SDS011;8401;52.528;13.340;2023-04-25T09:23:39;6.33;;;2.70;;
16577;SDS011;8401;52.528;13.340;2023-04-25T09:26:18;9.47;;;3.03;;
16577;SDS011;8401;52.528;13.340;2023-04-25T09:28:45;7.40;;;2.70;;
16577;SDS011;8401;52.528;13.340;2023-04-25T09:31:20;8.77;;;2.83;;
16577;SDS011;8401;52.528;13.340;2023-04-25T09:33:47;7.00;;;2.60;;
16577;SDS011;8401;52.528;13.340;2023-04-25T09:36:12;7.77;;;2.50;;
16577;SDS011;8401;52.528;13.340;2023-04-25T09:38:42;7.53;;;2.17;;
16577;SDS011;8401;52.528;13.340;2023-04-25T09:41:09;8.57;;;2.37;;
16577;SDS011;8401;52.528;13.340;2023-04-25T09:43:36;4.97;;;2.00;;
16577;SDS011;8401;52.528;13.340;2023-04-25T09:46:02;6.67;;;1.93;;
16577;SDS011;8401;52.528;13.340;2023-04-25T09:48:32;6.07;;;2.17;;
16577;SDS011;8401;52.528;13.340;2023-04-25T09:51:09;6.03;;;2.03;;
16577;SDS011;8401;52.528;13.340;2023-04-25T09:53:40;5.37;;;2.53;;
16577;SDS011;8401;52.528;13.340;2023-04-25T09:56:07;8.97;;;2.40;;
16577;SDS011;8401;52.528;13.340;2023-04-25T09:58:35;9.10;;;2.47;;
16577;SDS011;8401;52.528;13.340;2023-04-25T10:01:06;6.80;;;2.40;;
16577;SDS011;8401;52.528;13.340;2023-04-25T10:03:36;8.87;;;2.60;;
16577;SDS011;8401;52.528;13.340;2023-04-25T10:06:13;6.87;;;3.30;;
16577;SDS011;8401;52.528;13.340;2023-04-25T10:08:43;7.53;;;2.10;;
16577;SDS011;8401;52.528;13.340;2023-04-25T10:11:10;11.20;;;2.50;;
16577;SDS011;8401;52.528;13.340;2023-04-25T10:13:39;7.03;;;2.50;;
16577;SDS011;8401;52.528;13.340;2023-04-25T10:16:06;5.20;;;2.13;;
16577;SDS011;8401;52.528;13.340;2023-04-25T10:18:32;6.03;;;1.90;;
16577;SDS011;8401;52.528;13.340;2023-04-25T10:20:59;6.27;;;2.70;;
16577;SDS011;8401;52.528;13.340;2023-04-25T10:23:26;6.30;;;2.13;;
16577;SDS011;8401;52.528;13.340;2023-04-25T10:25:54;8.80;;;2.63;;
16577;SDS011;8401;52.528;13.340;2023-04-25T10:28:20;7.20;;;2.10;;
16577;SDS011;8401;52.528;13.340;2023-04-25T10:31:02;6.70;;;2.30;;
16577;SDS011;8401;52.528;13.340;2023-04-25T10:33:39;11.63;;;2.97;;
16577;SDS011;8401;52.528;13.340;2023-04-25T10:38:56;4.07;;;1.90;;
16577;SDS011;8401;52.528;13.340;2023-04-25T10:41:31;6.00;;;2.20;;
16577;SDS011;8401;52.528;13.340;2023-04-25T10:44:10;8.20;;;2.33;;
16577;SDS011;8401;52.528;13.340;2023-04-25T10:46:35;5.13;;;2.43;;
16577;SDS011;8401;52.528;13.340;2023-04-25T10:49:02;8.03;;;2.30;;
16577;SDS011;8401;52.528;13.340;2023-04-25T10:59:02;5.03;;;1.93;;
16577;SDS011;8401;52.528;13.340;2023-04-25T11:01:40;8.93;;;2.40;;
16577;SDS011;8401;52.528;13.340;2023-04-25T11:04:21;9.37;;;2.30;;
16577;SDS011;8401;52.528;13.340;2023-04-25T11:06:58;6.93;;;2.40;;
16577;SDS011;8401;52.528;13.340;2023-04-25T11:09:41;6.90;;;2.50;;
16577;SDS011;8401;52.528;13.340;2023-04-25T11:12:10;5.67;;;2.30;;
16577;SDS011;8401;52.528;13.340;2023-04-25T11:14:39;5.37;;;1.90;;
16577;SDS011;8401;52.528;13.340;2023-04-25T11:17:05;6.60;;;1.77;;
16577;SDS011;8401;52.528;13.340;2023-04-25T11:19:31;8.27;;;2.10;;
16577;SDS011;8401;52.528;13.340;2023-04-25T11:22:00;8.70;;;2.20;;
16577;SDS011;8401;52.528;13.340;2023-04-25T11:24:30;5.83;;;2.30;;
16577;SDS011;8401;52.528;13.340;2023-04-25T11:27:00;7.47;;;2.00;;
16577;SDS011;8401;52.528;13.340;2023-04-25T11:29:27;7.17;;;1.90;;
16577;SDS011;8401;52.528;13.340;2023-04-25T11:31:54;3.70;;;1.83;;
16577;SDS011;8401;52.528;13.340;2023-04-25T11:34:23;6.30;;;1.63;;
16577;SDS011;8401;52.528;13.340;2023-04-25T11:36:50;9.27;;;1.70;;
16577;SDS011;8401;52.528;13.340;2023-04-25T11:39:17;6.67;;;2.27;;
16577;SDS011;8401;52.528;13.340;2023-04-25T11:41:43;5.10;;;2.00;;
16577;SDS011;8401;52.528;13.340;2023-04-25T11:44:09;4.37;;;2.00;;
16577;SDS011;8401;52.528;13.340;2023-04-25T11:46:35;4.17;;;1.90;;
16577;SDS011;8401;52.528;13.340;2023-04-25T11:49:01;5.87;;;2.10;;
16577;SDS011;8401;52.528;13.340;2023-04-25T11:51:27;7.80;;;2.23;;
16577;SDS011;8401;52.528;13.340;2023-04-25T11:53:52;6.57;;;2.20;;
16577;SDS011;8401;52.528;13.340;2023-04-25T11:56:18;6.17;;;2.10;;
16577;SDS011;8401;52.528;13.340;2023-04-25T12:01:46;4.83;;;1.70;;
16577;SDS011;8401;52.528;13.340;2023-04-25T12:04:15;4.97;;;2.27;;
16577;SDS011;8401;52.528;13.340;2023-04-25T12:06:41;4.60;;;2.10;;
16577;SDS011;8401;52.528;13.340;2023-04-25T12:09:09;7.47;;;1.80;;
16577;SDS011;8401;52.528;13.340;2023-04-25T12:11:43;5.47;;;1.87;;
16577;SDS011;8401;52.528;13.340;2023-04-25T12:14:33;6.10;;;2.10;;
16577;SDS011;8401;52.528;13.340;2023-04-25T12:17:01;5.43;;;1.90;;
16577;SDS011;8401;52.528;13.340;2023-04-25T12:19:32;6.57;;;2.40;;
16577;SDS011;8401;52.528;13.340;2023-04-25T12:22:00;4.73;;;1.70;;
16577;SDS011;8401;52.528;13.340;2023-04-25T12:24:44;6.13;;;2.00;;
16577;SDS011;8401;52.528;13.340;2023-04-25T12:27:10;7.57;;;2.40;;
16577;SDS011;8401;52.528;13.340;2023-04-25T12:29:35;7.57;;;2.27;;
16577;SDS011;8401;52.528;13.340;2023-04-25T12:32:01;5.67;;;2.10;;
16577;SDS011;8401;52.528;13.340;2023-04-25T12:34:27;5.73;;;1.93;;
16577;SDS011;8401;52.528;13.340;2023-04-25T12:36:53;6.07;;;2.30;;
16577;SDS011;8401;52.528;13.340;2023-04-25T12:39:20;5.33;;;2.43;;
16577;SDS011;8401;52.528;13.340;2023-04-25T12:41:47;5.27;;;1.90;;
16577;SDS011;8401;52.528;13.340;2023-04-25T12:44:13;3.93;;;2.13;;
16577;SDS011;8401;52.528;13.340;2023-04-25T12:46:39;4.30;;;1.87;;
16577;SDS011;8401;52.528;13.340;2023-04-25T12:49:06;6.53;;;2.30;;
16577;SDS011;8401;52.528;13.340;2023-04-25T12:51:33;5.00;;;1.93;;
16577;SDS011;8401;52.528;13.340;2023-04-25T12:54:00;6.73;;;1.97;;
16577;SDS011;8401;52.528;13.340;2023-04-25T12:56:26;4.80;;;1.50;;
16577;SDS011;8401;52.528;13.340;2023-04-25T12:58:52;4.00;;;1.77;;
16577;SDS011;8401;52.528;13.340;2023-04-25T13:01:18;9.03;;;1.97;;
16577;SDS011;8401;52.528;13.340;2023-04-25T13:03:45;5.10;;;2.17;;
16577;SDS011;8401;52.528;13.340;2023-04-25T13:06:11;4.97;;;1.90;;
16577;SDS011;8401;52.528;13.340;2023-04-25T13:08:38;8.87;;;2.30;;
16577;SDS011;8401;52.528;13.340;2023-04-25T13:11:04;3.23;;;1.83;;
16577;SDS011;8401;52.528;13.340;2023-04-25T13:13:30;6.07;;;2.03;;
16577;SDS011;8401;52.528;13.340;2023-04-25T13:15:56;3.57;;;1.70;;
16577;SDS011;8401;52.528;13.340;2023-04-25T13:18:22;4.57;;;2.10;;
16577;SDS011;8401;52.528;13.340;2023-04-25T13:20:54;4.13;;;1.40;;
16577;SDS011;8401;52.528;13.340;2023-04-25T13:23:20;2.20;;;1.20;;
16577;SDS011;8401;52.528;13.340;2023-04-25T13:25:46;3.63;;;1.40;;
16577;SDS011;8401;52.528;13.340;2023-04-25T13:28:12;5.03;;;1.50;;
16577;SDS011;8401;52.528;13.340;2023-04-25T13:30:38;6.17;;;1.60;;
16577;SDS011;8401;52.528;13.340;2023-04-25T13:33:04;5.60;;;1.73;;
16577;SDS011;8401;52.528;13.340;2023-04-25T13:35:31;3.47;;;1.50;;
16577;SDS011;8401;52.528;13.340;2023-04-25T13:37:59;4.20;;;1.50;;
16577;SDS011;8401;52.528;13.340;2023-04-25T13:40:24;6.77;;;1.57;;
16577;SDS011;8401;52.528;13.340;2023-04-25T13:42:51;4.40;;;1.63;;
16577;SDS011;8401;52.528;13.340;2023-04-25T13:45:17;7.13;;;1.80;;
16577;SDS011;8401;52.528;13.340;2023-04-25T13:47:43;6.87;;;2.07;;
16577;SDS011;8401;52.528;13.340;2023-04-25T13:50:09;4.00;;;1.47;;
16577;SDS011;8401;52.528;13.340;2023-04-25T13:52:35;4.30;;;1.77;;
16577;SDS011;8401;52.528;13.340;2023-04-25T13:55:00;2.93;;;1.57;;
16577;SDS011;8401;52.528;13.340;2023-04-25T13:57:28;5.67;;;1.40;;
16577;SDS011;8401;52.528;13.340;2023-04-25T13:59:55;4.23;;;1.30;;
16577;SDS011;8401;52.528;13.340;2023-04-25T14:02:21;3.60;;;1.73;;
16577;SDS011;8401;52.528;13.340;2023-04-25T14:04:46;4.63;;;1.87;;
16577;SDS011;8401;52.528;13.340;2023-04-25T14:07:13;5.10;;;1.77;;
16577;SDS011;8401;52.528;13.340;2023-04-25T14:09:41;5.47;;;2.03;;
16577;SDS011;8401;52.528;13.340;2023-04-25T14:12:07;5.47;;;1.73;;
16577;SDS011;8401;52.528;13.340;2023-04-25T14:14:32;6.07;;;2.23;;
16577;SDS011;8401;52.528;13.340;2023-04-25T14:16:58;4.30;;;1.90;;
16577;SDS011;8401;52.528;13.340;2023-04-25T14:19:24;5.13;;;1.57;;
16577;SDS011;8401;52.528;13.340;2023-04-25T14:21:49;7.40;;;2.00;;
16577;SDS011;8401;52.528;13.340;2023-04-25T14:24:15;6.40;;;1.53;;
16577;SDS011;8401;52.528;13.340;2023-04-25T14:26:41;4.13;;;1.50;;
16577;SDS011;8401;52.528;13.340;2023-04-25T14:29:07;6.63;;;1.70;;
16577;SDS011;8401;52.528;13.340;2023-04-25T14:31:34;4.60;;;1.23;;
16577;SDS011;8401;52.528;13.340;2023-04-25T14:34:00;6.77;;;1.60;;
16577;SDS011;8401;52.528;13.340;2023-04-25T14:36:30;4.77;;;1.70;;
16577;SDS011;8401;52.528;13.340;2023-04-25T14:38:56;7.60;;;2.00;;
16577;SDS011;8401;52.528;13.340;2023-04-25T14:41:22;3.97;;;1.33;;
16577;SDS011;8401;52.528;13.340;2023-04-25T14:43:48;3.50;;;1.30;;
16577;SDS011;8401;52.528;13.340;2023-04-25T14:46:14;4.97;;;1.50;;
16577;SDS011;8401;52.528;13.340;2023-04-25T14:48:40;4.70;;;1.80;;
16577;SDS011;8401;52.528;13.340;2023-04-25T14:51:05;2.90;;;1.70;;
16577;SDS011;8401;52.528;13.340;2023-04-25T14:53:31;5.43;;;1.83;;
16577;SDS011;8401;52.528;13.340;2023-04-25T14:55:57;4.13;;;2.00;;
16577;SDS011;8401;52.528;13.340;2023-04-25T14:58:23;5.03;;;2.10;;